sensor_id;sensor_type;location;lat;lon;timestamp;P1;durP1;ratioP1;P2;durP2;ratioP2
17365;SDS011;8800;50.118;9.900;2023-10-08T00:00:43;8.23;;;3.13;;
17365;SDS011;8800;50.118;9.900;2023-10-08T00:03:12;7.57;;;3.13;;
17365;SDS011;8800;50.118;9.900;2023-10-08T00:05:39;7.00;;;3.08;;
17365;SDS011;8800;50.118;9.900;2023-10-08T00:08:06;11.88;;;3.72;;
17365;SDS011;8800;50.118;9.900;2023-10-08T00:10:38;8.30;;;3.22;;
17365;SDS011;8800;50.118;9.900;2023-10-08T00:13:06;7.38;;;3.15;;
17365;SDS011;8800;50.118;9.900;2023-10-08T00:15:34;6.85;;;3.28;;
17365;SDS011;8800;50.118;9.900;2023-10-08T00:18:02;8.38;;;3.60;;
17365;SDS011;8800;50.118;9.900;2023-10-08T00:20:30;8.25;;;3.72;;
17365;SDS011;8800;50.118;9.900;2023-10-08T00:23:00;9.25;;;3.40;;
17365;SDS011;8800;50.118;9.900;2023-10-08T00:25:32;6.15;;;3.25;;
17365;SDS011;8800;50.118;9.900;2023-10-08T00:28:07;9.75;;;3.25;;
17365;SDS011;8800;50.118;9.900;2023-10-08T00:30:38;8.48;;;3.22;;
17365;SDS011;8800;50.118;9.900;2023-10-08T00:33:07;6.95;;;3.30;;
17365;SDS011;8800;50.118;9.900;2023-10-08T00:35:37;7.30;;;3.20;;
17365;SDS011;8800;50.118;9.900;2023-10-08T00:38:04;7.78;;;3.50;;
17365;SDS011;8800;50.118;9.900;2023-10-08T00:40:36;8.52;;;3.00;;
17365;SDS011;8800;50.118;9.900;2023-10-08T00:43:03;8.90;;;3.45;;
17365;SDS011;8800;50.118;9.900;2023-10-08T00:45:37;9.45;;;3.30;;
17365;SDS011;8800;50.118;9.900;2023-10-08T00:48:11;6.32;;;3.10;;
17365;SDS011;8800;50.118;9.900;2023-10-08T00:50:41;12.85;;;3.17;;
17365;SDS011;8800;50.118;9.900;2023-10-08T00:53:10;9.35;;;3.50;;
17365;SDS011;8800;50.118;9.900;2023-10-08T00:55:42;8.07;;;3.05;;
17365;SDS011;8800;50.118;9.900;2023-10-08T00:58:15;12.48;;;3.50;;
17365;SDS011;8800;50.118;9.900;2023-10-08T01:00:50;7.82;;;3.38;;
17365;SDS011;8800;50.118;9.900;2023-10-08T01:03:18;7.32;;;3.08;;
17365;SDS011;8800;50.118;9.900;2023-10-08T01:05:44;7.82;;;3.33;;
17365;SDS011;8800;50.118;9.900;2023-10-08T01:08:13;10.02;;;3.47;;
17365;SDS011;8800;50.118;9.900;2023-10-08T01:10:43;8.63;;;3.03;;
17365;SDS011;8800;50.118;9.900;2023-10-08T01:13:12;8.20;;;2.90;;
17365;SDS011;8800;50.118;9.900;2023-10-08T01:15:47;9.00;;;3.30;;
17365;SDS011;8800;50.118;9.900;2023-10-08T01:18:17;7.95;;;3.33;;
17365;SDS011;8800;50.118;9.900;2023-10-08T01:20:54;7.03;;;3.47;;
17365;SDS011;8800;50.118;9.900;2023-10-08T01:23:23;8.43;;;3.10;;
17365;SDS011;8800;50.118;9.900;2023-10-08T01:25:53;5.38;;;3.10;;
17365;SDS011;8800;50.118;9.900;2023-10-08T01:28:22;9.88;;;3.03;;
17365;SDS011;8800;50.118;9.900;2023-10-08T01:30:54;8.02;;;3.10;;
17365;SDS011;8800;50.118;9.900;2023-10-08T01:33:23;14.55;;;3.20;;
17365;SDS011;8800;50.118;9.900;2023-10-08T01:35:53;6.40;;;2.92;;
17365;SDS011;8800;50.118;9.900;2023-10-08T01:38:20;12.82;;;3.65;;
17365;SDS011;8800;50.118;9.900;2023-10-08T01:40:50;10.35;;;3.35;;
17365;SDS011;8800;50.118;9.900;2023-10-08T01:43:17;8.32;;;3.28;;
17365;SDS011;8800;50.118;9.900;2023-10-08T01:45:47;6.93;;;3.28;;
17365;SDS011;8800;50.118;9.900;2023-10-08T01:48:17;7.90;;;2.92;;
17365;SDS011;8800;50.118;9.900;2023-10-08T01:50:45;7.07;;;2.97;;
17365;SDS011;8800;50.118;9.900;2023-10-08T01:53:12;6.78;;;2.67;;
17365;SDS011;8800;50.118;9.900;2023-10-08T01:55:40;8.65;;;3.38;;
17365;SDS011;8800;50.118;9.900;2023-10-08T01:58:18;7.80;;;3.28;;
17365;SDS011;8800;50.118;9.900;2023-10-08T02:00:45;10.25;;;3.30;;
17365;SDS011;8800;50.118;9.900;2023-10-08T02:03:12;6.45;;;3.20;;
17365;SDS011;8800;50.118;9.900;2023-10-08T02:05:40;8.60;;;3.45;;
17365;SDS011;8800;50.118;9.900;2023-10-08T02:08:07;8.20;;;3.47;;
17365;SDS011;8800;50.118;9.900;2023-10-08T02:10:34;7.45;;;3.10;;
17365;SDS011;8800;50.118;9.900;2023-10-08T02:13:04;8.75;;;3.17;;
17365;SDS011;8800;50.118;9.900;2023-10-08T02:15:32;8.73;;;3.17;;
17365;SDS011;8800;50.118;9.900;2023-10-08T02:17:59;7.85;;;3.35;;
17365;SDS011;8800;50.118;9.900;2023-10-08T02:20:28;7.40;;;3.45;;
17365;SDS011;8800;50.118;9.900;2023-10-08T02:22:55;8.82;;;3.60;;
17365;SDS011;8800;50.118;9.900;2023-10-08T02:25:24;11.57;;;3.58;;
17365;SDS011;8800;50.118;9.900;2023-10-08T02:27:51;9.38;;;3.78;;
17365;SDS011;8800;50.118;9.900;2023-10-08T02:30:18;8.63;;;3.28;;
17365;SDS011;8800;50.118;9.900;2023-10-08T02:32:46;14.10;;;3.40;;
17365;SDS011;8800;50.118;9.900;2023-10-08T02:35:14;6.90;;;3.15;;
17365;SDS011;8800;50.118;9.900;2023-10-08T02:37:41;11.48;;;3.70;;
17365;SDS011;8800;50.118;9.900;2023-10-08T02:40:11;9.38;;;3.50;;
17365;SDS011;8800;50.118;9.900;2023-10-08T02:42:44;6.97;;;3.25;;
17365;SDS011;8800;50.118;9.900;2023-10-08T02:45:11;8.93;;;3.45;;
17365;SDS011;8800;50.118;9.900;2023-10-08T02:47:40;6.20;;;3.05;;
17365;SDS011;8800;50.118;9.900;2023-10-08T02:50:09;9.20;;;3.45;;
17365;SDS011;8800;50.118;9.900;2023-10-08T02:52:37;9.98;;;3.58;;
17365;SDS011;8800;50.118;9.900;2023-10-08T02:55:04;8.63;;;3.60;;
17365;SDS011;8800;50.118;9.900;2023-10-08T02:57:43;8.13;;;3.60;;
17365;SDS011;8800;50.118;9.900;2023-10-08T03:00:10;8.32;;;3.17;;
17365;SDS011;8800;50.118;9.900;2023-10-08T03:02:39;7.40;;;3.30;;
17365;SDS011;8800;50.118;9.900;2023-10-08T03:05:06;8.60;;;3.63;;
17365;SDS011;8800;50.118;9.900;2023-10-08T03:07:39;10.88;;;3.70;;
17365;SDS011;8800;50.118;9.900;2023-10-08T03:10:07;7.35;;;3.50;;
17365;SDS011;8800;50.118;9.900;2023-10-08T03:12:43;12.98;;;5.45;;
17365;SDS011;8800;50.118;9.900;2023-10-08T03:15:11;10.77;;;3.42;;
17365;SDS011;8800;50.118;9.900;2023-10-08T03:17:39;11.23;;;3.90;;
17365;SDS011;8800;50.118;9.900;2023-10-08T03:20:14;11.27;;;4.05;;
17365;SDS011;8800;50.118;9.900;2023-10-08T03:22:56;9.32;;;3.03;;
17365;SDS011;8800;50.118;9.900;2023-10-08T03:25:23;8.40;;;3.30;;
17365;SDS011;8800;50.118;9.900;2023-10-08T03:27:55;11.32;;;3.30;;
17365;SDS011;8800;50.118;9.900;2023-10-08T03:30:24;9.80;;;3.80;;
17365;SDS011;8800;50.118;9.900;2023-10-08T03:32:51;9.60;;;3.38;;
17365;SDS011;8800;50.118;9.900;2023-10-08T03:35:20;8.25;;;3.42;;
17365;SDS011;8800;50.118;9.900;2023-10-08T03:37:53;10.85;;;3.75;;
17365;SDS011;8800;50.118;9.900;2023-10-08T03:40:41;9.82;;;3.92;;
17365;SDS011;8800;50.118;9.900;2023-10-08T03:43:08;8.10;;;3.20;;
17365;SDS011;8800;50.118;9.900;2023-10-08T03:45:46;9.85;;;4.00;;
17365;SDS011;8800;50.118;9.900;2023-10-08T03:48:20;9.38;;;3.38;;
17365;SDS011;8800;50.118;9.900;2023-10-08T03:50:48;8.90;;;3.30;;
17365;SDS011;8800;50.118;9.900;2023-10-08T03:53:22;8.40;;;3.70;;
17365;SDS011;8800;50.118;9.900;2023-10-08T03:55:50;8.38;;;3.30;;
17365;SDS011;8800;50.118;9.900;2023-10-08T03:58:20;6.25;;;3.45;;
17365;SDS011;8800;50.118;9.900;2023-10-08T04:00:55;9.25;;;3.45;;
17365;SDS011;8800;50.118;9.900;2023-10-08T04:03:33;8.10;;;3.55;;
17365;SDS011;8800;50.118;9.900;2023-10-08T04:06:23;9.25;;;3.97;;
17365;SDS011;8800;50.118;9.900;2023-10-08T04:08:54;10.07;;;4.15;;
17365;SDS011;8800;50.118;9.900;2023-10-08T04:11:32;8.15;;;3.53;;
17365;SDS011;8800;50.118;9.900;2023-10-08T04:14:00;7.10;;;3.25;;
17365;SDS011;8800;50.118;9.900;2023-10-08T04:16:27;10.48;;;3.70;;
17365;SDS011;8800;50.118;9.900;2023-10-08T04:18:57;10.10;;;3.70;;
17365;SDS011;8800;50.118;9.900;2023-10-08T04:21:28;8.65;;;3.70;;
17365;SDS011;8800;50.118;9.900;2023-10-08T04:23:55;9.25;;;3.55;;
17365;SDS011;8800;50.118;9.900;2023-10-08T04:26:22;8.18;;;3.58;;
17365;SDS011;8800;50.118;9.900;2023-10-08T04:28:51;10.35;;;3.85;;
17365;SDS011;8800;50.118;9.900;2023-10-08T04:31:22;7.53;;;3.63;;
17365;SDS011;8800;50.118;9.900;2023-10-08T04:33:53;7.90;;;3.20;;
17365;SDS011;8800;50.118;9.900;2023-10-08T04:36:21;10.77;;;3.90;;
17365;SDS011;8800;50.118;9.900;2023-10-08T04:38:47;9.75;;;3.67;;
17365;SDS011;8800;50.118;9.900;2023-10-08T04:41:19;7.90;;;3.85;;
17365;SDS011;8800;50.118;9.900;2023-10-08T04:43:54;20.42;;;5.80;;
17365;SDS011;8800;50.118;9.900;2023-10-08T04:46:21;14.20;;;6.60;;
17365;SDS011;8800;50.118;9.900;2023-10-08T04:48:59;14.98;;;6.10;;
17365;SDS011;8800;50.118;9.900;2023-10-08T04:51:30;14.90;;;6.10;;
17365;SDS011;8800;50.118;9.900;2023-10-08T04:53:59;11.23;;;4.70;;
17365;SDS011;8800;50.118;9.900;2023-10-08T04:56:30;10.32;;;4.43;;
17365;SDS011;8800;50.118;9.900;2023-10-08T04:58:59;6.93;;;3.95;;
17365;SDS011;8800;50.118;9.900;2023-10-08T05:01:29;10.95;;;4.05;;
17365;SDS011;8800;50.118;9.900;2023-10-08T05:04:04;10.60;;;3.85;;
17365;SDS011;8800;50.118;9.900;2023-10-08T05:06:48;10.18;;;4.00;;
17365;SDS011;8800;50.118;9.900;2023-10-08T05:09:26;8.15;;;3.80;;
17365;SDS011;8800;50.118;9.900;2023-10-08T05:12:06;10.88;;;3.40;;
17365;SDS011;8800;50.118;9.900;2023-10-08T05:14:55;10.88;;;3.90;;
17365;SDS011;8800;50.118;9.900;2023-10-08T05:17:38;7.53;;;3.33;;
17365;SDS011;8800;50.118;9.900;2023-10-08T05:20:21;13.48;;;3.33;;
17365;SDS011;8800;50.118;9.900;2023-10-08T05:23:05;9.15;;;3.22;;
17365;SDS011;8800;50.118;9.900;2023-10-08T05:25:45;10.00;;;3.63;;
17365;SDS011;8800;50.118;9.900;2023-10-08T05:28:23;8.73;;;3.65;;
17365;SDS011;8800;50.118;9.900;2023-10-08T05:30:52;9.20;;;3.63;;
17365;SDS011;8800;50.118;9.900;2023-10-08T05:33:36;8.60;;;3.53;;
17365;SDS011;8800;50.118;9.900;2023-10-08T05:36:25;8.43;;;3.65;;
17365;SDS011;8800;50.118;9.900;2023-10-08T05:38:53;7.68;;;3.53;;
17365;SDS011;8800;50.118;9.900;2023-10-08T05:41:26;7.03;;;3.30;;
17365;SDS011;8800;50.118;9.900;2023-10-08T05:44:04;10.73;;;4.05;;
17365;SDS011;8800;50.118;9.900;2023-10-08T05:46:50;10.43;;;4.30;;
17365;SDS011;8800;50.118;9.900;2023-10-08T05:49:37;13.60;;;4.32;;
17365;SDS011;8800;50.118;9.900;2023-10-08T05:52:20;10.30;;;4.22;;
17365;SDS011;8800;50.118;9.900;2023-10-08T05:55:06;5.93;;;3.70;;
17365;SDS011;8800;50.118;9.900;2023-10-08T05:57:43;10.93;;;5.03;;
17365;SDS011;8800;50.118;9.900;2023-10-08T06:00:17;11.02;;;4.78;;
17365;SDS011;8800;50.118;9.900;2023-10-08T06:03:13;15.98;;;5.40;;
17365;SDS011;8800;50.118;9.900;2023-10-08T06:05:58;8.20;;;4.18;;
17365;SDS011;8800;50.118;9.900;2023-10-08T06:08:47;13.05;;;6.03;;
17365;SDS011;8800;50.118;9.900;2023-10-08T06:11:46;9.25;;;4.20;;
17365;SDS011;8800;50.118;9.900;2023-10-08T06:14:33;12.30;;;4.95;;
17365;SDS011;8800;50.118;9.900;2023-10-08T06:17:17;7.72;;;3.80;;
17365;SDS011;8800;50.118;9.900;2023-10-08T06:20:01;9.00;;;4.10;;
17365;SDS011;8800;50.118;9.900;2023-10-08T06:22:35;16.23;;;7.18;;
17365;SDS011;8800;50.118;9.900;2023-10-08T06:25:01;10.10;;;4.03;;
17365;SDS011;8800;50.118;9.900;2023-10-08T06:27:42;9.27;;;3.20;;
17365;SDS011;8800;50.118;9.900;2023-10-08T06:30:10;10.23;;;3.45;;
17365;SDS011;8800;50.118;9.900;2023-10-08T06:32:41;9.57;;;4.30;;
17365;SDS011;8800;50.118;9.900;2023-10-08T06:35:11;10.48;;;3.60;;
17365;SDS011;8800;50.118;9.900;2023-10-08T06:37:43;10.60;;;3.83;;
17365;SDS011;8800;50.118;9.900;2023-10-08T06:40:10;7.15;;;4.15;;
17365;SDS011;8800;50.118;9.900;2023-10-08T06:42:57;10.02;;;3.45;;
17365;SDS011;8800;50.118;9.900;2023-10-08T06:45:28;8.25;;;3.38;;
17365;SDS011;8800;50.118;9.900;2023-10-08T06:47:56;7.85;;;3.83;;
17365;SDS011;8800;50.118;9.900;2023-10-08T06:50:25;8.48;;;4.18;;
17365;SDS011;8800;50.118;9.900;2023-10-08T06:52:51;13.30;;;4.32;;
17365;SDS011;8800;50.118;9.900;2023-10-08T06:55:19;10.00;;;4.85;;
17365;SDS011;8800;50.118;9.900;2023-10-08T06:57:50;11.13;;;4.45;;
17365;SDS011;8800;50.118;9.900;2023-10-08T07:00:17;9.75;;;4.05;;
17365;SDS011;8800;50.118;9.900;2023-10-08T07:03:03;8.35;;;3.97;;
17365;SDS011;8800;50.118;9.900;2023-10-08T07:05:31;7.70;;;3.65;;
17365;SDS011;8800;50.118;9.900;2023-10-08T07:08:01;10.50;;;3.55;;
17365;SDS011;8800;50.118;9.900;2023-10-08T07:10:31;9.20;;;3.75;;
17365;SDS011;8800;50.118;9.900;2023-10-08T07:12:59;7.88;;;3.85;;
17365;SDS011;8800;50.118;9.900;2023-10-08T07:15:28;7.93;;;3.63;;
17365;SDS011;8800;50.118;9.900;2023-10-08T07:17:55;7.90;;;3.78;;
17365;SDS011;8800;50.118;9.900;2023-10-08T07:20:21;9.05;;;3.88;;
17365;SDS011;8800;50.118;9.900;2023-10-08T07:22:49;9.18;;;4.05;;
17365;SDS011;8800;50.118;9.900;2023-10-08T07:25:19;10.27;;;3.75;;
17365;SDS011;8800;50.118;9.900;2023-10-08T07:27:46;8.93;;;3.70;;
17365;SDS011;8800;50.118;9.900;2023-10-08T07:30:13;41.22;;;17.60;;
17365;SDS011;8800;50.118;9.900;2023-10-08T07:32:51;25.63;;;12.52;;
17365;SDS011;8800;50.118;9.900;2023-10-08T07:35:19;23.02;;;9.48;;
17365;SDS011;8800;50.118;9.900;2023-10-08T07:37:51;85.03;;;28.55;;
17365;SDS011;8800;50.118;9.900;2023-10-08T07:40:19;34.28;;;13.00;;
17365;SDS011;8800;50.118;9.900;2023-10-08T07:42:48;46.15;;;15.45;;
17365;SDS011;8800;50.118;9.900;2023-10-08T07:45:17;121.50;;;33.95;;
17365;SDS011;8800;50.118;9.900;2023-10-08T07:47:46;52.35;;;18.75;;
17365;SDS011;8800;50.118;9.900;2023-10-08T07:50:14;22.48;;;10.25;;
17365;SDS011;8800;50.118;9.900;2023-10-08T07:52:41;16.40;;;8.27;;
17365;SDS011;8800;50.118;9.900;2023-10-08T07:55:11;16.95;;;6.50;;
17365;SDS011;8800;50.118;9.900;2023-10-08T07:57:42;15.18;;;8.55;;
17365;SDS011;8800;50.118;9.900;2023-10-08T08:00:10;22.88;;;11.98;;
17365;SDS011;8800;50.118;9.900;2023-10-08T08:02:48;29.55;;;15.38;;
17365;SDS011;8800;50.118;9.900;2023-10-08T08:05:15;18.40;;;7.53;;
17365;SDS011;8800;50.118;9.900;2023-10-08T08:07:42;13.82;;;6.22;;
17365;SDS011;8800;50.118;9.900;2023-10-08T08:10:12;14.20;;;7.85;;
17365;SDS011;8800;50.118;9.900;2023-10-08T08:12:39;11.05;;;5.60;;
17365;SDS011;8800;50.118;9.900;2023-10-08T08:15:06;11.35;;;5.25;;
17365;SDS011;8800;50.118;9.900;2023-10-08T08:17:40;10.73;;;5.68;;
17365;SDS011;8800;50.118;9.900;2023-10-08T08:20:07;13.10;;;5.43;;
17365;SDS011;8800;50.118;9.900;2023-10-08T08:22:42;13.48;;;4.93;;
17365;SDS011;8800;50.118;9.900;2023-10-08T08:25:20;12.40;;;4.43;;
17365;SDS011;8800;50.118;9.900;2023-10-08T08:28:01;11.38;;;3.92;;
17365;SDS011;8800;50.118;9.900;2023-10-08T08:30:31;10.23;;;3.95;;
17365;SDS011;8800;50.118;9.900;2023-10-08T08:32:59;10.00;;;4.25;;
17365;SDS011;8800;50.118;9.900;2023-10-08T08:35:35;11.07;;;4.10;;
17365;SDS011;8800;50.118;9.900;2023-10-08T08:38:01;9.55;;;4.20;;
17365;SDS011;8800;50.118;9.900;2023-10-08T08:40:32;11.98;;;5.40;;
17365;SDS011;8800;50.118;9.900;2023-10-08T08:42:58;11.38;;;4.95;;
17365;SDS011;8800;50.118;9.900;2023-10-08T08:45:30;11.48;;;5.78;;
17365;SDS011;8800;50.118;9.900;2023-10-08T08:47:58;10.30;;;4.60;;
17365;SDS011;8800;50.118;9.900;2023-10-08T08:50:25;12.60;;;5.28;;
17365;SDS011;8800;50.118;9.900;2023-10-08T08:52:52;12.43;;;5.18;;
17365;SDS011;8800;50.118;9.900;2023-10-08T08:55:18;12.38;;;5.40;;
17365;SDS011;8800;50.118;9.900;2023-10-08T08:57:48;11.52;;;5.22;;
17365;SDS011;8800;50.118;9.900;2023-10-08T09:00:15;10.35;;;4.90;;
17365;SDS011;8800;50.118;9.900;2023-10-08T09:02:43;13.50;;;5.60;;
17365;SDS011;8800;50.118;9.900;2023-10-08T09:05:11;14.88;;;5.50;;
17365;SDS011;8800;50.118;9.900;2023-10-08T09:07:55;12.32;;;4.72;;
17365;SDS011;8800;50.118;9.900;2023-10-08T09:10:22;9.98;;;5.00;;
17365;SDS011;8800;50.118;9.900;2023-10-08T09:12:53;7.70;;;4.60;;
17365;SDS011;8800;50.118;9.900;2023-10-08T09:15:22;9.75;;;4.15;;
17365;SDS011;8800;50.118;9.900;2023-10-08T09:17:50;11.45;;;3.90;;
17365;SDS011;8800;50.118;9.900;2023-10-08T09:20:17;13.35;;;4.90;;
17365;SDS011;8800;50.118;9.900;2023-10-08T09:22:45;10.48;;;5.28;;
17365;SDS011;8800;50.118;9.900;2023-10-08T09:25:15;13.93;;;4.68;;
17365;SDS011;8800;50.118;9.900;2023-10-08T09:27:43;11.45;;;5.00;;
17365;SDS011;8800;50.118;9.900;2023-10-08T09:30:13;13.50;;;5.47;;
17365;SDS011;8800;50.118;9.900;2023-10-08T09:32:44;11.75;;;5.30;;
17365;SDS011;8800;50.118;9.900;2023-10-08T09:35:11;10.80;;;4.80;;
17365;SDS011;8800;50.118;9.900;2023-10-08T09:37:39;14.88;;;5.47;;
17365;SDS011;8800;50.118;9.900;2023-10-08T09:40:07;12.90;;;5.32;;
17365;SDS011;8800;50.118;9.900;2023-10-08T09:42:35;10.95;;;4.85;;
17365;SDS011;8800;50.118;9.900;2023-10-08T09:45:03;13.20;;;4.95;;
17365;SDS011;8800;50.118;9.900;2023-10-08T09:47:32;18.20;;;5.35;;
17365;SDS011;8800;50.118;9.900;2023-10-08T09:50:01;10.30;;;5.20;;
17365;SDS011;8800;50.118;9.900;2023-10-08T09:52:33;15.85;;;6.53;;
17365;SDS011;8800;50.118;9.900;2023-10-08T09:55:00;10.90;;;4.78;;
17365;SDS011;8800;50.118;9.900;2023-10-08T09:57:28;14.10;;;5.63;;
17365;SDS011;8800;50.118;9.900;2023-10-08T09:59:55;13.98;;;5.32;;
17365;SDS011;8800;50.118;9.900;2023-10-08T10:02:23;13.10;;;5.45;;
17365;SDS011;8800;50.118;9.900;2023-10-08T10:04:54;15.85;;;6.43;;
17365;SDS011;8800;50.118;9.900;2023-10-08T10:07:21;16.67;;;6.13;;
17365;SDS011;8800;50.118;9.900;2023-10-08T10:09:50;16.00;;;5.78;;
17365;SDS011;8800;50.118;9.900;2023-10-08T10:12:21;12.45;;;4.80;;
17365;SDS011;8800;50.118;9.900;2023-10-08T10:14:52;12.50;;;4.75;;
17365;SDS011;8800;50.118;9.900;2023-10-08T10:17:21;13.55;;;4.82;;
17365;SDS011;8800;50.118;9.900;2023-10-08T10:19:49;17.05;;;4.57;;
17365;SDS011;8800;50.118;9.900;2023-10-08T10:22:26;11.05;;;4.97;;
17365;SDS011;8800;50.118;9.900;2023-10-08T10:24:54;15.23;;;6.38;;
17365;SDS011;8800;50.118;9.900;2023-10-08T10:27:20;12.85;;;5.22;;
17365;SDS011;8800;50.118;9.900;2023-10-08T10:29:47;9.40;;;4.80;;
17365;SDS011;8800;50.118;9.900;2023-10-08T10:32:14;17.25;;;5.07;;
17365;SDS011;8800;50.118;9.900;2023-10-08T10:34:42;10.35;;;4.78;;
17365;SDS011;8800;50.118;9.900;2023-10-08T10:37:10;12.50;;;5.15;;
17365;SDS011;8800;50.118;9.900;2023-10-08T10:39:51;16.67;;;8.02;;
17365;SDS011;8800;50.118;9.900;2023-10-08T10:42:20;11.35;;;5.97;;
17365;SDS011;8800;50.118;9.900;2023-10-08T10:44:48;13.10;;;5.13;;
17365;SDS011;8800;50.118;9.900;2023-10-08T10:47:16;11.88;;;4.78;;
17365;SDS011;8800;50.118;9.900;2023-10-08T10:50:08;12.27;;;5.38;;
17365;SDS011;8800;50.118;9.900;2023-10-08T10:52:51;9.43;;;4.85;;
17365;SDS011;8800;50.118;9.900;2023-10-08T10:55:20;11.55;;;5.60;;
17365;SDS011;8800;50.118;9.900;2023-10-08T10:57:56;14.75;;;4.97;;
17365;SDS011;8800;50.118;9.900;2023-10-08T11:00:29;12.20;;;5.10;;
17365;SDS011;8800;50.118;9.900;2023-10-08T11:03:14;10.52;;;4.70;;
17365;SDS011;8800;50.118;9.900;2023-10-08T11:05:49;11.63;;;5.45;;
17365;SDS011;8800;50.118;9.900;2023-10-08T11:08:16;12.07;;;5.20;;
17365;SDS011;8800;50.118;9.900;2023-10-08T11:10:46;17.23;;;5.78;;
17365;SDS011;8800;50.118;9.900;2023-10-08T11:13:16;18.50;;;5.13;;
17365;SDS011;8800;50.118;9.900;2023-10-08T11:15:44;14.82;;;5.07;;
17365;SDS011;8800;50.118;9.900;2023-10-08T11:18:15;16.60;;;5.43;;
17365;SDS011;8800;50.118;9.900;2023-10-08T11:20:42;18.80;;;5.32;;
17365;SDS011;8800;50.118;9.900;2023-10-08T11:23:10;12.27;;;4.80;;
17365;SDS011;8800;50.118;9.900;2023-10-08T11:25:54;15.80;;;5.38;;
17365;SDS011;8800;50.118;9.900;2023-10-08T11:28:25;11.98;;;5.55;;
17365;SDS011;8800;50.118;9.900;2023-10-08T11:30:54;15.73;;;5.13;;
17365;SDS011;8800;50.118;9.900;2023-10-08T11:33:22;14.13;;;5.28;;
17365;SDS011;8800;50.118;9.900;2023-10-08T11:35:56;11.38;;;5.15;;
17365;SDS011;8800;50.118;9.900;2023-10-08T11:38:24;16.23;;;6.53;;
17365;SDS011;8800;50.118;9.900;2023-10-08T11:40:55;12.85;;;5.90;;
17365;SDS011;8800;50.118;9.900;2023-10-08T11:43:23;15.32;;;6.25;;
17365;SDS011;8800;50.118;9.900;2023-10-08T11:45:49;15.48;;;6.57;;
17365;SDS011;8800;50.118;9.900;2023-10-08T11:48:16;14.82;;;6.57;;
17365;SDS011;8800;50.118;9.900;2023-10-08T11:50:50;19.42;;;6.68;;
17365;SDS011;8800;50.118;9.900;2023-10-08T11:53:17;11.63;;;5.65;;
17365;SDS011;8800;50.118;9.900;2023-10-08T11:55:45;14.48;;;5.80;;
17365;SDS011;8800;50.118;9.900;2023-10-08T11:58:14;13.40;;;5.85;;
17365;SDS011;8800;50.118;9.900;2023-10-08T12:00:45;15.20;;;6.45;;
17365;SDS011;8800;50.118;9.900;2023-10-08T12:03:17;17.30;;;6.25;;
17365;SDS011;8800;50.118;9.900;2023-10-08T12:05:44;13.05;;;6.13;;
17365;SDS011;8800;50.118;9.900;2023-10-08T12:08:13;12.88;;;5.78;;
17365;SDS011;8800;50.118;9.900;2023-10-08T12:10:41;13.38;;;6.05;;
17365;SDS011;8800;50.118;9.900;2023-10-08T12:13:08;15.00;;;5.88;;
17365;SDS011;8800;50.118;9.900;2023-10-08T12:15:37;12.77;;;5.60;;
17365;SDS011;8800;50.118;9.900;2023-10-08T12:18:06;18.08;;;5.97;;
17365;SDS011;8800;50.118;9.900;2023-10-08T12:20:40;16.42;;;5.75;;
17365;SDS011;8800;50.118;9.900;2023-10-08T12:23:10;12.25;;;5.22;;
17365;SDS011;8800;50.118;9.900;2023-10-08T12:25:43;15.48;;;5.80;;
17365;SDS011;8800;50.118;9.900;2023-10-08T12:28:16;15.02;;;5.30;;
17365;SDS011;8800;50.118;9.900;2023-10-08T12:30:45;18.10;;;6.15;;
17365;SDS011;8800;50.118;9.900;2023-10-08T12:33:12;11.98;;;5.82;;
17365;SDS011;8800;50.118;9.900;2023-10-08T12:35:41;13.20;;;6.22;;
17365;SDS011;8800;50.118;9.900;2023-10-08T12:38:08;12.88;;;5.38;;
17365;SDS011;8800;50.118;9.900;2023-10-08T12:40:35;16.05;;;5.88;;
17365;SDS011;8800;50.118;9.900;2023-10-08T12:43:13;15.35;;;4.28;;
17365;SDS011;8800;50.118;9.900;2023-10-08T12:45:45;7.15;;;1.70;;
17365;SDS011;8800;50.118;9.900;2023-10-08T12:48:18;4.03;;;1.58;;
17365;SDS011;8800;50.118;9.900;2023-10-08T12:50:45;1.95;;;1.23;;
17365;SDS011;8800;50.118;9.900;2023-10-08T12:53:18;5.13;;;1.40;;
17365;SDS011;8800;50.118;9.900;2023-10-08T12:55:49;2.95;;;1.27;;
17365;SDS011;8800;50.118;9.900;2023-10-08T12:58:19;3.88;;;1.20;;
17365;SDS011;8800;50.118;9.900;2023-10-08T13:00:50;5.35;;;1.40;;
17365;SDS011;8800;50.118;9.900;2023-10-08T13:03:22;2.67;;;1.15;;
17365;SDS011;8800;50.118;9.900;2023-10-08T13:05:49;4.35;;;1.20;;
17365;SDS011;8800;50.118;9.900;2023-10-08T13:08:18;5.65;;;1.40;;
17365;SDS011;8800;50.118;9.900;2023-10-08T13:10:45;4.82;;;1.30;;
17365;SDS011;8800;50.118;9.900;2023-10-08T13:13:11;7.10;;;1.13;;
17365;SDS011;8800;50.118;9.900;2023-10-08T13:15:38;5.07;;;1.23;;
17365;SDS011;8800;50.118;9.900;2023-10-08T13:18:08;4.07;;;1.23;;
17365;SDS011;8800;50.118;9.900;2023-10-08T13:20:35;3.92;;;0.93;;
17365;SDS011;8800;50.118;9.900;2023-10-08T13:23:06;4.05;;;1.20;;
17365;SDS011;8800;50.118;9.900;2023-10-08T13:25:32;4.60;;;0.98;;
17365;SDS011;8800;50.118;9.900;2023-10-08T13:28:04;1.73;;;1.00;;
17365;SDS011;8800;50.118;9.900;2023-10-08T13:30:32;4.90;;;1.60;;
17365;SDS011;8800;50.118;9.900;2023-10-08T13:32:59;3.50;;;1.20;;
17365;SDS011;8800;50.118;9.900;2023-10-08T13:35:28;2.17;;;1.13;;
17365;SDS011;8800;50.118;9.900;2023-10-08T13:37:54;3.00;;;1.30;;
17365;SDS011;8800;50.118;9.900;2023-10-08T13:40:21;2.10;;;0.90;;
17365;SDS011;8800;50.118;9.900;2023-10-08T13:42:57;1.30;;;0.85;;
17365;SDS011;8800;50.118;9.900;2023-10-08T13:45:24;1.52;;;0.85;;
17365;SDS011;8800;50.118;9.900;2023-10-08T13:47:54;3.92;;;1.48;;
17365;SDS011;8800;50.118;9.900;2023-10-08T13:50:25;2.35;;;1.30;;
17365;SDS011;8800;50.118;9.900;2023-10-08T13:52:57;4.75;;;1.50;;
17365;SDS011;8800;50.118;9.900;2023-10-08T13:55:23;2.33;;;1.00;;
17365;SDS011;8800;50.118;9.900;2023-10-08T13:57:50;3.92;;;1.20;;
17365;SDS011;8800;50.118;9.900;2023-10-08T14:00:17;3.47;;;1.00;;
17365;SDS011;8800;50.118;9.900;2023-10-08T14:02:51;2.58;;;0.60;;
17365;SDS011;8800;50.118;9.900;2023-10-08T14:05:18;1.63;;;0.70;;
17365;SDS011;8800;50.118;9.900;2023-10-08T14:07:49;1.65;;;0.70;;
17365;SDS011;8800;50.118;9.900;2023-10-08T14:10:17;1.52;;;0.93;;
17365;SDS011;8800;50.118;9.900;2023-10-08T14:12:45;1.98;;;0.90;;
17365;SDS011;8800;50.118;9.900;2023-10-08T14:15:14;2.53;;;1.02;;
17365;SDS011;8800;50.118;9.900;2023-10-08T14:17:41;1.85;;;0.95;;
17365;SDS011;8800;50.118;9.900;2023-10-08T14:20:09;4.18;;;1.10;;
17365;SDS011;8800;50.118;9.900;2023-10-08T14:22:39;0.85;;;0.65;;
17365;SDS011;8800;50.118;9.900;2023-10-08T14:25:07;1.52;;;1.00;;
17365;SDS011;8800;50.118;9.900;2023-10-08T14:27:39;1.90;;;1.00;;
17365;SDS011;8800;50.118;9.900;2023-10-08T14:30:06;1.60;;;1.00;;
17365;SDS011;8800;50.118;9.900;2023-10-08T14:32:40;5.13;;;0.93;;
17365;SDS011;8800;50.118;9.900;2023-10-08T14:35:11;3.85;;;0.93;;
17365;SDS011;8800;50.118;9.900;2023-10-08T14:37:55;2.00;;;1.00;;
17365;SDS011;8800;50.118;9.900;2023-10-08T14:40:39;4.57;;;0.98;;
17365;SDS011;8800;50.118;9.900;2023-10-08T14:43:24;4.10;;;1.02;;
17365;SDS011;8800;50.118;9.900;2023-10-08T14:45:54;2.45;;;0.90;;
17365;SDS011;8800;50.118;9.900;2023-10-08T14:48:21;5.45;;;1.10;;
17365;SDS011;8800;50.118;9.900;2023-10-08T14:50:48;3.63;;;0.98;;
17365;SDS011;8800;50.118;9.900;2023-10-08T14:53:15;1.58;;;0.90;;
17365;SDS011;8800;50.118;9.900;2023-10-08T14:55:42;2.92;;;0.70;;
17365;SDS011;8800;50.118;9.900;2023-10-08T14:58:09;2.28;;;0.70;;
17365;SDS011;8800;50.118;9.900;2023-10-08T15:00:37;2.85;;;1.00;;
17365;SDS011;8800;50.118;9.900;2023-10-08T15:03:07;2.45;;;1.08;;
17365;SDS011;8800;50.118;9.900;2023-10-08T15:05:33;2.53;;;1.00;;
17365;SDS011;8800;50.118;9.900;2023-10-08T15:08:02;1.98;;;0.98;;
17365;SDS011;8800;50.118;9.900;2023-10-08T15:10:35;1.15;;;0.90;;
17365;SDS011;8800;50.118;9.900;2023-10-08T15:13:01;3.88;;;0.77;;
17365;SDS011;8800;50.118;9.900;2023-10-08T15:15:28;2.35;;;1.20;;
17365;SDS011;8800;50.118;9.900;2023-10-08T15:18:01;4.20;;;1.00;;